Gootcha — 29440QE — position and weather

sailwx.info

Track history (hours):
 
Tides and Currents Weather Stations Pressure Air Temp Water Temp Dewpoint Dewpoint Depression Visibility Wind Speed Wind Dir Waves Ship Positions

Gootcha

Last reported at 2017-Sep-21 21:18 UTC. Time now 2017-Sep-23 02:24 UTC.
Position S 27°27' E 153°06'.

Length 24 m.

Type: Passenger vessel. MMSI: 503576900.

Date/timePositionNaut miles runAvg speedWind from/ knotsBaromVisibWave heightAir tempDewpointWater temp
2017-Sep-21 21:18S 27°27' E 153°06'0 0.1
2017-Sep-21 20:42S 27°27' E 153°06'0 0.0
2017-Sep-21 20:20S 27°27' E 153°06'0 0.0
2017-Sep-21 19:58S 27°27' E 153°06'0 0.0
2017-Sep-21 19:28S 27°27' E 153°06'0 0.0
2017-Sep-21 19:00S 27°27' E 153°06'0 0.0
2017-Sep-21 18:28S 27°27' E 153°06'0 0.0
2017-Sep-21 17:59S 27°27' E 153°06'0 0.0
2017-Sep-21 17:28S 27°27' E 153°06'0 0.0
2017-Sep-21 16:59S 27°27' E 153°06'0 0.0
2017-Sep-21 16:28S 27°27' E 153°06'0 0.0
2017-Sep-21 16:00S 27°27' E 153°06'0 0.0
2017-Sep-21 15:30S 27°27' E 153°06'0 0.0
2017-Sep-21 14:59S 27°27' E 153°06'0 0.0
2017-Sep-21 14:30S 27°27' E 153°06'0 0.0
2017-Sep-21 14:00S 27°27' E 153°06'0 0.0
2017-Sep-21 13:30S 27°27' E 153°06'0 0.0
2017-Sep-21 13:00S 27°27' E 153°06'0 0.0
2017-Sep-21 12:29S 27°27' E 153°06'0 0.0
2017-Sep-21 12:00S 27°27' E 153°06'0 0.0
2017-Sep-21 11:25S 27°27' E 153°06'0 0.0
2017-Sep-21 10:59S 27°27' E 153°06'0 0.0
2017-Sep-21 10:28S 27°27' E 153°06'0 0.0
2017-Sep-21 09:59S 27°27' E 153°06'0 0.0
2017-Sep-21 09:30S 27°27' E 153°06'3 0.1
2017-Sep-20 08:22S 27°27' E 153°03'1 2.1
2017-Sep-20 07:56S 27°27' E 153°04'0 0.0
2017-Sep-19 07:58S 27°26' E 153°04'2 2.7
2017-Sep-19 07:09S 27°28' E 153°02'1 0.6
2017-Sep-19 06:06S 27°29' E 153°01'1 0.1
2017-Sep-18 22:16S 27°28' E 153°02'1 0.7
2017-Sep-18 20:27S 27°27' E 153°03'0 0.0
2017-Sep-18 19:24S 27°27' E 153°03'0 0.0
2017-Sep-18 18:59S 27°27' E 153°03'0 0.0
2017-Sep-18 08:46S 27°27' E 153°03'0 0.1
2017-Sep-18 08:16S 27°27' E 153°03'0 0.0
2017-Sep-17 19:26S 27°27' E 153°03'0 0.0
2017-Sep-17 11:55S 27°27' E 153°03'0 0.0
2017-Sep-17 10:25S 27°27' E 153°03'0 0.0
2017-Sep-17 09:22S 27°27' E 153°03'1 0.0
2017-Sep-16 19:47S 27°28' E 153°03'0 0.0
2017-Sep-16 19:31S 27°28' E 153°03'0 0.0
2017-Sep-16 19:01S 27°28' E 153°03'0 0.0
2017-Sep-16 18:31S 27°28' E 153°03'0 0.0
2017-Sep-16 18:00S 27°28' E 153°03'0 0.0
2017-Sep-16 17:30S 27°28' E 153°03'0 0.0
2017-Sep-16 17:00S 27°28' E 153°03'0 0.0
2017-Sep-16 16:30S 27°28' E 153°03'0 0.0
2017-Sep-16 16:00S 27°28' E 153°03'0 0.0
2017-Sep-16 15:30S 27°28' E 153°03'0 0.0
2017-Sep-16 15:00S 27°28' E 153°03'0 0.0
2017-Sep-16 14:30S 27°28' E 153°03'0 0.0
2017-Sep-16 13:59S 27°28' E 153°03'0 0.0
2017-Sep-16 13:30S 27°28' E 153°03'0 0.0
2017-Sep-16 12:59S 27°28' E 153°03'1 0.3
2017-Sep-16 08:39S 27°26' E 153°03'0 0.6
2017-Sep-16 08:18S 27°26' E 153°04'1 4.0
2017-Sep-16 07:58S 27°28' E 153°03'2 1.4
2017-Sep-16 06:36S 27°29' E 153°01'0 0.0
2017-Sep-15 21:25S 27°28' E 153°01'2 3.1
2017-Sep-15 20:49S 27°28' E 153°03'1 3.0
2017-Sep-15 20:23S 27°27' E 153°04'1 1.0
2017-Sep-15 19:23S 27°27' E 153°05'0 0.0
2017-Sep-15 17:59S 27°27' E 153°05'0 0.0
2017-Sep-15 17:27S 27°27' E 153°05'0 0.0
2017-Sep-15 17:00S 27°27' E 153°05'0 0.0
2017-Sep-15 16:25S 27°27' E 153°05'0 0.0
2017-Sep-15 16:00S 27°27' E 153°05'0 0.0
2017-Sep-15 15:30S 27°27' E 153°05'0 0.0
2017-Sep-15 15:00S 27°27' E 153°05'0 0.0
2017-Sep-15 14:30S 27°27' E 153°05'0 0.0
2017-Sep-15 14:00S 27°27' E 153°05'2 3.3
2017-Sep-15 13:26S 27°27' E 153°03'1 3.0
2017-Sep-15 13:00S 27°28' E 153°02'1 0.8
2017-Sep-15 11:52S 27°28' E 153°01'1 2.6
2017-Sep-15 11:29S 27°29' E 153°03'2 3.8
2017-Sep-15 10:53S 27°27' E 153°04'1 2.0
2017-Sep-15 10:27S 27°27' E 153°03'1 2.8
2017-Sep-15 09:59S 27°28' E 153°02'1 0.8
2017-Sep-15 08:55S 27°28' E 153°01'1 2.7
2017-Sep-15 08:24S 27°29' E 153°03'2 4.2
2017-Sep-15 07:52S 27°27' E 153°04'3 0.3
2017-Sep-14 20:51S 27°29' E 153°01'3 3.5
2017-Sep-14 19:58S 27°26' E 153°04'1 1.7
2017-Sep-14 19:27S 27°27' E 153°03'1 0.2
2017-Sep-14 13:32S 27°28' E 153°03'112.7
2017-Sep-14 13:27S 27°27' E 153°03'0 0.3
2017-Sep-14 12:56S 27°27' E 153°03'1 3.2
2017-Sep-14 12:29S 27°28' E 153°02'1 1.1
2017-Sep-14 11:26S 27°28' E 153°01'2 2.6
2017-Sep-14 10:39S 27°27' E 153°03'1 4.3
2017-Sep-14 10:26S 27°27' E 153°04'1 1.6
2017-Sep-14 09:57S 27°27' E 153°03'1 2.9
2017-Sep-14 09:28S 27°28' E 153°02'1 0.9
2017-Sep-14 08:23S 27°29' E 153°01'0 0.0
2017-Sep-13 22:52S 27°29' E 153°01'1 0.1
2017-Sep-13 13:28S 27°28' E 153°00'2 3.9
2017-Sep-13 12:59S 27°29' E 153°03'2 4.0
2017-Sep-13 12:25S 27°27' E 153°04'1 1.9
2017-Sep-13 11:56S 27°27' E 153°03'0 0.1
2017-Sep-13 07:55S 27°27' E 153°03'2 4.6
2017-Sep-13 07:30S 27°27' E 153°05'2 0.2
2017-Sep-12 18:49S 27°28' E 153°03'0 0.0
2017-Sep-12 18:30S 27°28' E 153°03'0 0.0
2017-Sep-12 18:00S 27°28' E 153°03'0 0.0
2017-Sep-12 17:30S 27°28' E 153°03'0 0.0
2017-Sep-12 16:45S 27°28' E 153°03'0 0.0
2017-Sep-12 16:30S 27°28' E 153°03'0 0.0
2017-Sep-12 15:11S 27°28' E 153°03'0 0.0
2017-Sep-12 14:55S 27°28' E 153°03'0 0.0
2017-Sep-12 14:22S 27°28' E 153°03'0 0.0
2017-Sep-12 13:55S 27°28' E 153°03'0 0.0
2017-Sep-12 13:27S 27°28' E 153°03'0 0.0
2017-Sep-12 12:57S 27°28' E 153°03'0 0.0
2017-Sep-12 11:38S 27°28' E 153°03'0 0.0
2017-Sep-12 11:17S 27°28' E 153°03'0 0.0
2017-Sep-12 10:59S 27°28' E 153°03'0 0.0
2017-Sep-12 10:21S 27°28' E 153°03'0 0.0
2017-Sep-12 08:18S 27°28' E 153°03'1 2.1
2017-Sep-12 08:00S 27°27' E 153°03'2 0.2
2017-Sep-11 21:23S 27°29' E 153°01'  
Track history (hours):
 
Tides and Currents Weather Stations Pressure Air Temp Water Temp Dewpoint Dewpoint Depression Visibility Wind Speed Wind Dir Waves Ship Positions

Gootcha

Last reported at 2017-Sep-21 21:18 UTC. Time now 2017-Sep-23 02:24 UTC.
Position S 27°27' E 153°06'.

Length 24 m.

Type: Passenger vessel. MMSI: 503576900.

Date/timePositionNaut miles runAvg speedWind from/ knotsBaromVisibWave heightAir tempDewpointWater temp
2017-Sep-21 21:18S 27°27' E 153°06'0 0.1
2017-Sep-21 20:42S 27°27' E 153°06'0 0.0
2017-Sep-21 20:20S 27°27' E 153°06'0 0.0
2017-Sep-21 19:58S 27°27' E 153°06'0 0.0
2017-Sep-21 19:28S 27°27' E 153°06'0 0.0
2017-Sep-21 19:00S 27°27' E 153°06'0 0.0
2017-Sep-21 18:28S 27°27' E 153°06'0 0.0
2017-Sep-21 17:59S 27°27' E 153°06'0 0.0
2017-Sep-21 17:28S 27°27' E 153°06'0 0.0
2017-Sep-21 16:59S 27°27' E 153°06'0 0.0
2017-Sep-21 16:28S 27°27' E 153°06'0 0.0
2017-Sep-21 16:00S 27°27' E 153°06'0 0.0
2017-Sep-21 15:30S 27°27' E 153°06'0 0.0
2017-Sep-21 14:59S 27°27' E 153°06'0 0.0
2017-Sep-21 14:30S 27°27' E 153°06'0 0.0
2017-Sep-21 14:00S 27°27' E 153°06'0 0.0
2017-Sep-21 13:30S 27°27' E 153°06'0 0.0
2017-Sep-21 13:00S 27°27' E 153°06'0 0.0
2017-Sep-21 12:29S 27°27' E 153°06'0 0.0
2017-Sep-21 12:00S 27°27' E 153°06'0 0.0
2017-Sep-21 11:25S 27°27' E 153°06'0 0.0
2017-Sep-21 10:59S 27°27' E 153°06'0 0.0
2017-Sep-21 10:28S 27°27' E 153°06'0 0.0
2017-Sep-21 09:59S 27°27' E 153°06'0 0.0
2017-Sep-21 09:30S 27°27' E 153°06'3 0.1
2017-Sep-20 08:22S 27°27' E 153°03'1 2.1
2017-Sep-20 07:56S 27°27' E 153°04'0 0.0
2017-Sep-19 07:58S 27°26' E 153°04'2 2.7
2017-Sep-19 07:09S 27°28' E 153°02'1 0.6
2017-Sep-19 06:06S 27°29' E 153°01'1 0.1
2017-Sep-18 22:16S 27°28' E 153°02'1 0.7
2017-Sep-18 20:27S 27°27' E 153°03'0 0.0
2017-Sep-18 19:24S 27°27' E 153°03'0 0.0
2017-Sep-18 18:59S 27°27' E 153°03'0 0.0
2017-Sep-18 08:46S 27°27' E 153°03'0 0.1
2017-Sep-18 08:16S 27°27' E 153°03'0 0.0
2017-Sep-17 19:26S 27°27' E 153°03'0 0.0
2017-Sep-17 11:55S 27°27' E 153°03'0 0.0
2017-Sep-17 10:25S 27°27' E 153°03'0 0.0
2017-Sep-17 09:22S 27°27' E 153°03'1 0.0
2017-Sep-16 19:47S 27°28' E 153°03'0 0.0
2017-Sep-16 19:31S 27°28' E 153°03'0 0.0
2017-Sep-16 19:01S 27°28' E 153°03'0 0.0
2017-Sep-16 18:31S 27°28' E 153°03'0 0.0
2017-Sep-16 18:00S 27°28' E 153°03'0 0.0
2017-Sep-16 17:30S 27°28' E 153°03'0 0.0
2017-Sep-16 17:00S 27°28' E 153°03'0 0.0
2017-Sep-16 16:30S 27°28' E 153°03'0 0.0
2017-Sep-16 16:00S 27°28' E 153°03'0 0.0
2017-Sep-16 15:30S 27°28' E 153°03'0 0.0
2017-Sep-16 15:00S 27°28' E 153°03'0 0.0
2017-Sep-16 14:30S 27°28' E 153°03'0 0.0
2017-Sep-16 13:59S 27°28' E 153°03'0 0.0
2017-Sep-16 13:30S 27°28' E 153°03'0 0.0
2017-Sep-16 12:59S 27°28' E 153°03'1 0.3
2017-Sep-16 08:39S 27°26' E 153°03'0 0.6
2017-Sep-16 08:18S 27°26' E 153°04'1 4.0
2017-Sep-16 07:58S 27°28' E 153°03'2 1.4
2017-Sep-16 06:36S 27°29' E 153°01'0 0.0
2017-Sep-15 21:25S 27°28' E 153°01'2 3.1
2017-Sep-15 20:49S 27°28' E 153°03'1 3.0
2017-Sep-15 20:23S 27°27' E 153°04'1 1.0
2017-Sep-15 19:23S 27°27' E 153°05'0 0.0
2017-Sep-15 17:59S 27°27' E 153°05'0 0.0
2017-Sep-15 17:27S 27°27' E 153°05'0 0.0
2017-Sep-15 17:00S 27°27' E 153°05'0 0.0
2017-Sep-15 16:25S 27°27' E 153°05'0 0.0
2017-Sep-15 16:00S 27°27' E 153°05'0 0.0
2017-Sep-15 15:30S 27°27' E 153°05'0 0.0
2017-Sep-15 15:00S 27°27' E 153°05'0 0.0
2017-Sep-15 14:30S 27°27' E 153°05'0 0.0
2017-Sep-15 14:00S 27°27' E 153°05'2 3.3
2017-Sep-15 13:26S 27°27' E 153°03'1 3.0
2017-Sep-15 13:00S 27°28' E 153°02'1 0.8
2017-Sep-15 11:52S 27°28' E 153°01'1 2.6
2017-Sep-15 11:29S 27°29' E 153°03'2 3.8
2017-Sep-15 10:53S 27°27' E 153°04'1 2.0
2017-Sep-15 10:27S 27°27' E 153°03'1 2.8
2017-Sep-15 09:59S 27°28' E 153°02'1 0.8
2017-Sep-15 08:55S 27°28' E 153°01'1 2.7
2017-Sep-15 08:24S 27°29' E 153°03'2 4.2
2017-Sep-15 07:52S 27°27' E 153°04'3 0.3
2017-Sep-14 20:51S 27°29' E 153°01'3 3.5
2017-Sep-14 19:58S 27°26' E 153°04'1 1.7
2017-Sep-14 19:27S 27°27' E 153°03'1 0.2
2017-Sep-14 13:32S 27°28' E 153°03'112.7
2017-Sep-14 13:27S 27°27' E 153°03'0 0.3
2017-Sep-14 12:56S 27°27' E 153°03'1 3.2
2017-Sep-14 12:29S 27°28' E 153°02'1 1.1
2017-Sep-14 11:26S 27°28' E 153°01'2 2.6
2017-Sep-14 10:39S 27°27' E 153°03'1 4.3
2017-Sep-14 10:26S 27°27' E 153°04'1 1.6
2017-Sep-14 09:57S 27°27' E 153°03'1 2.9
2017-Sep-14 09:28S 27°28' E 153°02'1 0.9
2017-Sep-14 08:23S 27°29' E 153°01'0 0.0
2017-Sep-13 22:52S 27°29' E 153°01'1 0.1
2017-Sep-13 13:28S 27°28' E 153°00'2 3.9
2017-Sep-13 12:59S 27°29' E 153°03'2 4.0
2017-Sep-13 12:25S 27°27' E 153°04'1 1.9
2017-Sep-13 11:56S 27°27' E 153°03'0 0.1
2017-Sep-13 07:55S 27°27' E 153°03'2 4.6
2017-Sep-13 07:30S 27°27' E 153°05'2 0.2
2017-Sep-12 18:49S 27°28' E 153°03'0 0.0
2017-Sep-12 18:30S 27°28' E 153°03'0 0.0
2017-Sep-12 18:00S 27°28' E 153°03'0 0.0
2017-Sep-12 17:30S 27°28' E 153°03'0 0.0
2017-Sep-12 16:45S 27°28' E 153°03'0 0.0
2017-Sep-12 16:30S 27°28' E 153°03'0 0.0
2017-Sep-12 15:11S 27°28' E 153°03'0 0.0
2017-Sep-12 14:55S 27°28' E 153°03'0 0.0
2017-Sep-12 14:22S 27°28' E 153°03'0 0.0
2017-Sep-12 13:55S 27°28' E 153°03'0 0.0
2017-Sep-12 13:27S 27°28' E 153°03'0 0.0
2017-Sep-12 12:57S 27°28' E 153°03'0 0.0
2017-Sep-12 11:38S 27°28' E 153°03'0 0.0
2017-Sep-12 11:17S 27°28' E 153°03'0 0.0
2017-Sep-12 10:59S 27°28' E 153°03'0 0.0
2017-Sep-12 10:21S 27°28' E 153°03'0 0.0
2017-Sep-12 08:18S 27°28' E 153°03'1 2.1
2017-Sep-12 08:00S 27°27' E 153°03'2 0.2
2017-Sep-11 21:23S 27°29' E 153°01'  

Dump ship's entire track history